sensor_id;sensor_type;location;lat;lon;timestamp;P1;durP1;ratioP1;P2;durP2;ratioP2
44766;SDS011;30487;48.716;9.272;2024-02-14T00:01:52;12.45;;;5.20;;
44766;SDS011;30487;48.716;9.272;2024-02-14T00:04:18;12.65;;;5.55;;
44766;SDS011;30487;48.716;9.272;2024-02-14T00:06:44;11.75;;;5.13;;
44766;SDS011;30487;48.716;9.272;2024-02-14T00:09:10;12.98;;;5.28;;
44766;SDS011;30487;48.716;9.272;2024-02-14T00:11:36;10.57;;;5.13;;
44766;SDS011;30487;48.716;9.272;2024-02-14T00:14:02;10.25;;;5.30;;
44766;SDS011;30487;48.716;9.272;2024-02-14T00:16:27;16.33;;;7.63;;
44766;SDS011;30487;48.716;9.272;2024-02-14T00:18:55;18.23;;;8.40;;
44766;SDS011;30487;48.716;9.272;2024-02-14T00:21:22;14.73;;;6.22;;
44766;SDS011;30487;48.716;9.272;2024-02-14T00:23:47;12.77;;;5.80;;
44766;SDS011;30487;48.716;9.272;2024-02-14T00:26:13;11.38;;;5.22;;
44766;SDS011;30487;48.716;9.272;2024-02-14T00:28:38;9.38;;;4.70;;
44766;SDS011;30487;48.716;9.272;2024-02-14T00:31:04;9.32;;;4.85;;
44766;SDS011;30487;48.716;9.272;2024-02-14T00:33:31;9.48;;;4.88;;
44766;SDS011;30487;48.716;9.272;2024-02-14T00:35:56;10.32;;;5.13;;
44766;SDS011;30487;48.716;9.272;2024-02-14T00:38:22;9.52;;;4.70;;
44766;SDS011;30487;48.716;9.272;2024-02-14T00:40:47;11.02;;;4.88;;
44766;SDS011;30487;48.716;9.272;2024-02-14T00:43:13;8.23;;;4.65;;
44766;SDS011;30487;48.716;9.272;2024-02-14T00:45:39;11.77;;;5.18;;
44766;SDS011;30487;48.716;9.272;2024-02-14T00:48:04;9.65;;;4.63;;
44766;SDS011;30487;48.716;9.272;2024-02-14T00:50:32;10.27;;;4.75;;
44766;SDS011;30487;48.716;9.272;2024-02-14T00:52:58;9.98;;;4.65;;
44766;SDS011;30487;48.716;9.272;2024-02-14T00:55:24;10.40;;;5.03;;
44766;SDS011;30487;48.716;9.272;2024-02-14T00:57:50;11.43;;;5.03;;
44766;SDS011;30487;48.716;9.272;2024-02-14T01:00:16;10.20;;;4.50;;
44766;SDS011;30487;48.716;9.272;2024-02-14T01:02:42;13.20;;;4.80;;
44766;SDS011;30487;48.716;9.272;2024-02-14T01:05:08;11.13;;;4.93;;
44766;SDS011;30487;48.716;9.272;2024-02-14T01:07:34;12.15;;;4.82;;
44766;SDS011;30487;48.716;9.272;2024-02-14T01:10:00;12.48;;;4.82;;
44766;SDS011;30487;48.716;9.272;2024-02-14T01:12:26;11.63;;;4.80;;
44766;SDS011;30487;48.716;9.272;2024-02-14T01:14:51;10.90;;;4.85;;
44766;SDS011;30487;48.716;9.272;2024-02-14T01:17:17;8.40;;;3.90;;
44766;SDS011;30487;48.716;9.272;2024-02-14T01:19:42;9.30;;;4.05;;
44766;SDS011;30487;48.716;9.272;2024-02-14T01:22:08;7.38;;;3.70;;
44766;SDS011;30487;48.716;9.272;2024-02-14T01:24:34;10.25;;;3.65;;
44766;SDS011;30487;48.716;9.272;2024-02-14T01:27:00;7.15;;;3.58;;
44766;SDS011;30487;48.716;9.272;2024-02-14T01:29:25;7.93;;;3.30;;
44766;SDS011;30487;48.716;9.272;2024-02-14T01:31:51;7.72;;;3.88;;
44766;SDS011;30487;48.716;9.272;2024-02-14T01:34:17;9.65;;;3.80;;
44766;SDS011;30487;48.716;9.272;2024-02-14T01:36:43;9.80;;;3.70;;
44766;SDS011;30487;48.716;9.272;2024-02-14T01:39:08;8.55;;;4.15;;
44766;SDS011;30487;48.716;9.272;2024-02-14T01:41:43;10.10;;;4.40;;
44766;SDS011;30487;48.716;9.272;2024-02-14T01:44:11;8.98;;;4.47;;
44766;SDS011;30487;48.716;9.272;2024-02-14T01:46:37;9.45;;;4.70;;
44766;SDS011;30487;48.716;9.272;2024-02-14T01:49:03;7.63;;;4.22;;
44766;SDS011;30487;48.716;9.272;2024-02-14T01:51:29;11.05;;;4.85;;
44766;SDS011;30487;48.716;9.272;2024-02-14T01:53:56;10.98;;;4.80;;
44766;SDS011;30487;48.716;9.272;2024-02-14T01:56:23;11.27;;;4.57;;
44766;SDS011;30487;48.716;9.272;2024-02-14T01:58:50;8.00;;;4.22;;
44766;SDS011;30487;48.716;9.272;2024-02-14T02:01:17;9.55;;;4.60;;
44766;SDS011;30487;48.716;9.272;2024-02-14T02:03:43;8.60;;;4.00;;
44766;SDS011;30487;48.716;9.272;2024-02-14T02:06:08;8.85;;;4.45;;
44766;SDS011;30487;48.716;9.272;2024-02-14T02:08:34;8.60;;;4.53;;
44766;SDS011;30487;48.716;9.272;2024-02-14T02:11:00;9.15;;;4.70;;
44766;SDS011;30487;48.716;9.272;2024-02-14T02:13:26;8.98;;;4.35;;
44766;SDS011;30487;48.716;9.272;2024-02-14T02:15:52;11.27;;;4.53;;
44766;SDS011;30487;48.716;9.272;2024-02-14T02:18:18;8.20;;;3.67;;
44766;SDS011;30487;48.716;9.272;2024-02-14T02:20:44;9.70;;;4.20;;
44766;SDS011;30487;48.716;9.272;2024-02-14T02:23:11;7.13;;;4.07;;
44766;SDS011;30487;48.716;9.272;2024-02-14T02:25:39;8.65;;;4.13;;
44766;SDS011;30487;48.716;9.272;2024-02-14T02:28:05;8.90;;;4.35;;
44766;SDS011;30487;48.716;9.272;2024-02-14T02:30:31;8.50;;;3.80;;
44766;SDS011;30487;48.716;9.272;2024-02-14T02:32:56;9.75;;;4.25;;
44766;SDS011;30487;48.716;9.272;2024-02-14T02:35:23;7.95;;;4.20;;
44766;SDS011;30487;48.716;9.272;2024-02-14T02:37:49;8.30;;;3.58;;
44766;SDS011;30487;48.716;9.272;2024-02-14T02:40:15;8.48;;;4.13;;
44766;SDS011;30487;48.716;9.272;2024-02-14T02:42:42;7.72;;;3.92;;
44766;SDS011;30487;48.716;9.272;2024-02-14T02:45:10;9.10;;;4.13;;
44766;SDS011;30487;48.716;9.272;2024-02-14T02:47:36;8.77;;;3.83;;
44766;SDS011;30487;48.716;9.272;2024-02-14T02:50:01;7.10;;;3.70;;
44766;SDS011;30487;48.716;9.272;2024-02-14T02:52:28;7.63;;;4.20;;
44766;SDS011;30487;48.716;9.272;2024-02-14T02:54:54;8.68;;;4.00;;
44766;SDS011;30487;48.716;9.272;2024-02-14T02:57:20;9.13;;;4.20;;
44766;SDS011;30487;48.716;9.272;2024-02-14T02:59:45;8.75;;;4.05;;
44766;SDS011;30487;48.716;9.272;2024-02-14T03:02:13;9.23;;;3.83;;
44766;SDS011;30487;48.716;9.272;2024-02-14T03:04:39;8.40;;;3.88;;
44766;SDS011;30487;48.716;9.272;2024-02-14T03:07:05;7.93;;;4.00;;
44766;SDS011;30487;48.716;9.272;2024-02-14T03:09:33;8.23;;;3.70;;
44766;SDS011;30487;48.716;9.272;2024-02-14T03:12:00;10.32;;;4.28;;
44766;SDS011;30487;48.716;9.272;2024-02-14T03:14:28;8.73;;;3.80;;
44766;SDS011;30487;48.716;9.272;2024-02-14T03:17:00;8.60;;;3.95;;
44766;SDS011;30487;48.716;9.272;2024-02-14T03:19:26;7.82;;;4.20;;
44766;SDS011;30487;48.716;9.272;2024-02-14T03:21:53;7.63;;;4.13;;
44766;SDS011;30487;48.716;9.272;2024-02-14T03:24:19;7.00;;;3.75;;
44766;SDS011;30487;48.716;9.272;2024-02-14T03:26:45;6.85;;;3.67;;
44766;SDS011;30487;48.716;9.272;2024-02-14T03:29:10;7.53;;;3.80;;
44766;SDS011;30487;48.716;9.272;2024-02-14T03:31:36;7.45;;;4.10;;
44766;SDS011;30487;48.716;9.272;2024-02-14T03:34:02;8.02;;;4.05;;
44766;SDS011;30487;48.716;9.272;2024-02-14T03:36:28;8.15;;;4.20;;
44766;SDS011;30487;48.716;9.272;2024-02-14T03:38:58;7.63;;;4.18;;
44766;SDS011;30487;48.716;9.272;2024-02-14T03:41:28;9.73;;;3.85;;
44766;SDS011;30487;48.716;9.272;2024-02-14T03:43:54;8.13;;;4.15;;
44766;SDS011;30487;48.716;9.272;2024-02-14T03:46:23;7.53;;;3.88;;
44766;SDS011;30487;48.716;9.272;2024-02-14T03:48:49;7.53;;;4.10;;
44766;SDS011;30487;48.716;9.272;2024-02-14T03:51:14;7.00;;;4.13;;
44766;SDS011;30487;48.716;9.272;2024-02-14T03:53:41;7.05;;;3.90;;
44766;SDS011;30487;48.716;9.272;2024-02-14T03:56:07;8.38;;;4.18;;
44766;SDS011;30487;48.716;9.272;2024-02-14T03:58:32;9.60;;;4.25;;
44766;SDS011;30487;48.716;9.272;2024-02-14T04:01:02;9.45;;;4.30;;
44766;SDS011;30487;48.716;9.272;2024-02-14T04:03:28;8.95;;;3.85;;
44766;SDS011;30487;48.716;9.272;2024-02-14T04:05:54;9.85;;;3.95;;
44766;SDS011;30487;48.716;9.272;2024-02-14T04:08:19;5.82;;;3.83;;
44766;SDS011;30487;48.716;9.272;2024-02-14T04:10:45;9.15;;;3.85;;
44766;SDS011;30487;48.716;9.272;2024-02-14T04:13:11;9.88;;;3.97;;
44766;SDS011;30487;48.716;9.272;2024-02-14T04:15:36;11.07;;;4.10;;
44766;SDS011;30487;48.716;9.272;2024-02-14T04:18:02;10.07;;;4.47;;
44766;SDS011;30487;48.716;9.272;2024-02-14T04:20:31;8.40;;;4.25;;
44766;SDS011;30487;48.716;9.272;2024-02-14T04:22:56;9.13;;;4.50;;
44766;SDS011;30487;48.716;9.272;2024-02-14T04:25:23;9.68;;;3.97;;
44766;SDS011;30487;48.716;9.272;2024-02-14T04:27:49;10.25;;;4.55;;
44766;SDS011;30487;48.716;9.272;2024-02-14T04:30:14;9.77;;;4.47;;
44766;SDS011;30487;48.716;9.272;2024-02-14T04:32:40;11.45;;;4.40;;
44766;SDS011;30487;48.716;9.272;2024-02-14T04:35:06;9.93;;;4.13;;
44766;SDS011;30487;48.716;9.272;2024-02-14T04:37:33;8.35;;;4.20;;
44766;SDS011;30487;48.716;9.272;2024-02-14T04:39:59;10.93;;;4.68;;
44766;SDS011;30487;48.716;9.272;2024-02-14T04:42:27;8.50;;;4.60;;
44766;SDS011;30487;48.716;9.272;2024-02-14T04:44:53;9.25;;;4.38;;
44766;SDS011;30487;48.716;9.272;2024-02-14T04:47:18;10.65;;;4.43;;
44766;SDS011;30487;48.716;9.272;2024-02-14T04:49:45;9.73;;;4.80;;
44766;SDS011;30487;48.716;9.272;2024-02-14T04:52:11;9.85;;;4.30;;
44766;SDS011;30487;48.716;9.272;2024-02-14T04:54:36;9.55;;;4.97;;
44766;SDS011;30487;48.716;9.272;2024-02-14T04:57:02;9.95;;;4.85;;
44766;SDS011;30487;48.716;9.272;2024-02-14T04:59:29;9.75;;;4.45;;
44766;SDS011;30487;48.716;9.272;2024-02-14T05:01:55;10.93;;;4.22;;
44766;SDS011;30487;48.716;9.272;2024-02-14T05:04:21;8.55;;;4.65;;
44766;SDS011;30487;48.716;9.272;2024-02-14T05:06:47;9.10;;;4.93;;
44766;SDS011;30487;48.716;9.272;2024-02-14T05:09:13;8.75;;;4.50;;
44766;SDS011;30487;48.716;9.272;2024-02-14T05:11:40;8.45;;;4.72;;
44766;SDS011;30487;48.716;9.272;2024-02-14T05:14:06;10.05;;;4.45;;
44766;SDS011;30487;48.716;9.272;2024-02-14T05:16:32;10.52;;;4.93;;
44766;SDS011;30487;48.716;9.272;2024-02-14T05:18:57;11.27;;;4.65;;
44766;SDS011;30487;48.716;9.272;2024-02-14T05:21:23;7.53;;;4.10;;
44766;SDS011;30487;48.716;9.272;2024-02-14T05:23:48;8.63;;;4.57;;
44766;SDS011;30487;48.716;9.272;2024-02-14T05:26:15;9.10;;;4.70;;
44766;SDS011;30487;48.716;9.272;2024-02-14T05:28:40;9.13;;;4.53;;
44766;SDS011;30487;48.716;9.272;2024-02-14T05:31:06;7.75;;;4.85;;
44766;SDS011;30487;48.716;9.272;2024-02-14T05:33:32;7.85;;;4.30;;
44766;SDS011;30487;48.716;9.272;2024-02-14T05:35:58;9.23;;;4.70;;
44766;SDS011;30487;48.716;9.272;2024-02-14T05:38:23;10.57;;;4.97;;
44766;SDS011;30487;48.716;9.272;2024-02-14T05:40:49;7.57;;;4.65;;
44766;SDS011;30487;48.716;9.272;2024-02-14T05:43:15;8.68;;;4.90;;
44766;SDS011;30487;48.716;9.272;2024-02-14T05:45:42;9.52;;;4.65;;
44766;SDS011;30487;48.716;9.272;2024-02-14T05:48:07;8.00;;;4.28;;
44766;SDS011;30487;48.716;9.272;2024-02-14T05:50:33;7.47;;;4.47;;
44766;SDS011;30487;48.716;9.272;2024-02-14T05:52:59;10.45;;;4.40;;
44766;SDS011;30487;48.716;9.272;2024-02-14T05:55:25;10.18;;;4.47;;
44766;SDS011;30487;48.716;9.272;2024-02-14T05:57:51;9.93;;;4.45;;
44766;SDS011;30487;48.716;9.272;2024-02-14T06:00:20;7.75;;;4.43;;
44766;SDS011;30487;48.716;9.272;2024-02-14T06:02:46;9.02;;;4.40;;
44766;SDS011;30487;48.716;9.272;2024-02-14T06:05:12;7.97;;;4.05;;
44766;SDS011;30487;48.716;9.272;2024-02-14T06:07:38;8.65;;;4.25;;
44766;SDS011;30487;48.716;9.272;2024-02-14T06:10:05;8.10;;;4.03;;
44766;SDS011;30487;48.716;9.272;2024-02-14T06:12:32;10.23;;;4.25;;
44766;SDS011;30487;48.716;9.272;2024-02-14T06:14:58;6.53;;;4.03;;
44766;SDS011;30487;48.716;9.272;2024-02-14T06:17:23;8.13;;;4.10;;
44766;SDS011;30487;48.716;9.272;2024-02-14T06:19:51;12.88;;;4.45;;
44766;SDS011;30487;48.716;9.272;2024-02-14T06:22:17;7.90;;;4.00;;
44766;SDS011;30487;48.716;9.272;2024-02-14T06:24:42;7.90;;;4.18;;
44766;SDS011;30487;48.716;9.272;2024-02-14T06:27:08;12.85;;;4.47;;
44766;SDS011;30487;48.716;9.272;2024-02-14T06:29:33;7.10;;;3.80;;
44766;SDS011;30487;48.716;9.272;2024-02-14T06:31:59;11.38;;;4.13;;
44766;SDS011;30487;48.716;9.272;2024-02-14T06:34:25;9.00;;;4.20;;
44766;SDS011;30487;48.716;9.272;2024-02-14T06:36:51;7.03;;;3.85;;
44766;SDS011;30487;48.716;9.272;2024-02-14T06:39:16;6.95;;;3.80;;
44766;SDS011;30487;48.716;9.272;2024-02-14T06:41:42;9.73;;;4.40;;
44766;SDS011;30487;48.716;9.272;2024-02-14T06:44:10;7.93;;;3.95;;
44766;SDS011;30487;48.716;9.272;2024-02-14T06:46:35;9.85;;;3.90;;
44766;SDS011;30487;48.716;9.272;2024-02-14T06:49:02;9.35;;;3.83;;
44766;SDS011;30487;48.716;9.272;2024-02-14T06:51:28;11.57;;;3.97;;
44766;SDS011;30487;48.716;9.272;2024-02-14T06:53:55;8.43;;;3.70;;
44766;SDS011;30487;48.716;9.272;2024-02-14T06:56:21;14.10;;;4.47;;
44766;SDS011;30487;48.716;9.272;2024-02-14T06:58:47;10.70;;;3.90;;
44766;SDS011;30487;48.716;9.272;2024-02-14T07:01:17;11.00;;;3.53;;
44766;SDS011;30487;48.716;9.272;2024-02-14T07:03:46;6.38;;;3.35;;
44766;SDS011;30487;48.716;9.272;2024-02-14T07:06:12;5.70;;;3.03;;
44766;SDS011;30487;48.716;9.272;2024-02-14T07:08:40;7.85;;;3.40;;
44766;SDS011;30487;48.716;9.272;2024-02-14T07:11:06;8.57;;;3.45;;
44766;SDS011;30487;48.716;9.272;2024-02-14T07:13:32;7.78;;;3.78;;
44766;SDS011;30487;48.716;9.272;2024-02-14T07:15:57;6.25;;;3.10;;
44766;SDS011;30487;48.716;9.272;2024-02-14T07:18:23;8.85;;;3.08;;
44766;SDS011;30487;48.716;9.272;2024-02-14T07:20:48;6.95;;;2.92;;
44766;SDS011;30487;48.716;9.272;2024-02-14T07:23:14;8.25;;;3.28;;
44766;SDS011;30487;48.716;9.272;2024-02-14T07:25:40;7.47;;;2.67;;
44766;SDS011;30487;48.716;9.272;2024-02-14T07:28:05;6.30;;;2.97;;
44766;SDS011;30487;48.716;9.272;2024-02-14T07:30:31;7.18;;;2.47;;
44766;SDS011;30487;48.716;9.272;2024-02-14T07:32:57;9.07;;;2.95;;
44766;SDS011;30487;48.716;9.272;2024-02-14T07:35:22;4.88;;;2.75;;
44766;SDS011;30487;48.716;9.272;2024-02-14T07:37:48;7.60;;;3.08;;
44766;SDS011;30487;48.716;9.272;2024-02-14T07:40:14;8.07;;;3.25;;
44766;SDS011;30487;48.716;9.272;2024-02-14T07:42:39;8.10;;;3.30;;
44766;SDS011;30487;48.716;9.272;2024-02-14T07:45:05;7.57;;;2.95;;
44766;SDS011;30487;48.716;9.272;2024-02-14T07:47:31;6.45;;;2.63;;
44766;SDS011;30487;48.716;9.272;2024-02-14T07:49:56;6.65;;;2.78;;
44766;SDS011;30487;48.716;9.272;2024-02-14T07:52:22;7.05;;;2.80;;
44766;SDS011;30487;48.716;9.272;2024-02-14T07:54:52;5.95;;;2.60;;
44766;SDS011;30487;48.716;9.272;2024-02-14T07:57:18;5.63;;;3.13;;
44766;SDS011;30487;48.716;9.272;2024-02-14T07:59:44;5.60;;;2.65;;
44766;SDS011;30487;48.716;9.272;2024-02-14T08:02:10;5.72;;;3.20;;
44766;SDS011;30487;48.716;9.272;2024-02-14T08:04:35;6.53;;;3.15;;
44766;SDS011;30487;48.716;9.272;2024-02-14T08:07:01;6.65;;;3.38;;
44766;SDS011;30487;48.716;9.272;2024-02-14T08:09:27;9.13;;;3.40;;
44766;SDS011;30487;48.716;9.272;2024-02-14T08:11:54;8.73;;;3.38;;
44766;SDS011;30487;48.716;9.272;2024-02-14T08:14:19;7.03;;;3.50;;
44766;SDS011;30487;48.716;9.272;2024-02-14T08:16:45;7.45;;;3.53;;
44766;SDS011;30487;48.716;9.272;2024-02-14T08:19:10;7.90;;;3.40;;
44766;SDS011;30487;48.716;9.272;2024-02-14T08:21:36;8.20;;;3.58;;
44766;SDS011;30487;48.716;9.272;2024-02-14T08:24:02;10.13;;;3.65;;
44766;SDS011;30487;48.716;9.272;2024-02-14T08:26:28;6.35;;;3.45;;
44766;SDS011;30487;48.716;9.272;2024-02-14T08:28:53;7.68;;;3.38;;
44766;SDS011;30487;48.716;9.272;2024-02-14T08:31:19;7.93;;;3.78;;
44766;SDS011;30487;48.716;9.272;2024-02-14T08:33:45;8.68;;;3.85;;
44766;SDS011;30487;48.716;9.272;2024-02-14T08:36:10;8.02;;;4.00;;
44766;SDS011;30487;48.716;9.272;2024-02-14T08:38:36;9.48;;;4.07;;
44766;SDS011;30487;48.716;9.272;2024-02-14T08:41:02;11.88;;;3.95;;
44766;SDS011;30487;48.716;9.272;2024-02-14T08:43:30;8.32;;;4.15;;
44766;SDS011;30487;48.716;9.272;2024-02-14T08:45:56;9.40;;;4.00;;
44766;SDS011;30487;48.716;9.272;2024-02-14T08:48:22;9.80;;;4.07;;
44766;SDS011;30487;48.716;9.272;2024-02-14T08:50:48;7.35;;;4.15;;
44766;SDS011;30487;48.716;9.272;2024-02-14T08:53:13;7.88;;;4.38;;
44766;SDS011;30487;48.716;9.272;2024-02-14T08:55:39;8.90;;;4.07;;
44766;SDS011;30487;48.716;9.272;2024-02-14T08:58:05;10.02;;;4.05;;
44766;SDS011;30487;48.716;9.272;2024-02-14T09:00:31;9.77;;;3.78;;
44766;SDS011;30487;48.716;9.272;2024-02-14T09:03:00;10.95;;;3.78;;
44766;SDS011;30487;48.716;9.272;2024-02-14T09:05:26;8.88;;;4.22;;
44766;SDS011;30487;48.716;9.272;2024-02-14T09:07:53;9.18;;;4.10;;
44766;SDS011;30487;48.716;9.272;2024-02-14T09:10:19;8.93;;;3.80;;
44766;SDS011;30487;48.716;9.272;2024-02-14T09:12:44;9.43;;;3.90;;
44766;SDS011;30487;48.716;9.272;2024-02-14T09:15:10;8.10;;;4.00;;
44766;SDS011;30487;48.716;9.272;2024-02-14T09:17:37;6.10;;;3.17;;
44766;SDS011;30487;48.716;9.272;2024-02-14T09:20:04;6.43;;;3.10;;
44766;SDS011;30487;48.716;9.272;2024-02-14T09:22:34;8.55;;;3.13;;
44766;SDS011;30487;48.716;9.272;2024-02-14T09:25:00;6.75;;;3.10;;
44766;SDS011;30487;48.716;9.272;2024-02-14T09:27:29;9.63;;;3.00;;
44766;SDS011;30487;48.716;9.272;2024-02-14T09:29:55;6.55;;;2.92;;
44766;SDS011;30487;48.716;9.272;2024-02-14T09:32:20;10.23;;;2.50;;
44766;SDS011;30487;48.716;9.272;2024-02-14T09:34:46;7.07;;;2.28;;
44766;SDS011;30487;48.716;9.272;2024-02-14T09:37:12;5.80;;;2.30;;
44766;SDS011;30487;48.716;9.272;2024-02-14T09:39:38;5.78;;;2.55;;
44766;SDS011;30487;48.716;9.272;2024-02-14T09:42:07;8.73;;;2.45;;
44766;SDS011;30487;48.716;9.272;2024-02-14T09:44:35;6.40;;;1.70;;
44766;SDS011;30487;48.716;9.272;2024-02-14T09:47:02;4.50;;;1.67;;
44766;SDS011;30487;48.716;9.272;2024-02-14T09:49:29;5.60;;;1.95;;
44766;SDS011;30487;48.716;9.272;2024-02-14T09:51:56;2.88;;;1.30;;
44766;SDS011;30487;48.716;9.272;2024-02-14T09:54:23;3.25;;;1.38;;
44766;SDS011;30487;48.716;9.272;2024-02-14T09:56:50;4.35;;;1.52;;
44766;SDS011;30487;48.716;9.272;2024-02-14T09:59:19;3.03;;;1.13;;
44766;SDS011;30487;48.716;9.272;2024-02-14T10:01:46;3.80;;;1.13;;
44766;SDS011;30487;48.716;9.272;2024-02-14T10:04:13;3.30;;;1.20;;
44766;SDS011;30487;48.716;9.272;2024-02-14T10:06:38;3.03;;;1.08;;
44766;SDS011;30487;48.716;9.272;2024-02-14T10:09:04;3.22;;;1.20;;
44766;SDS011;30487;48.716;9.272;2024-02-14T10:11:33;2.90;;;0.80;;
44766;SDS011;30487;48.716;9.272;2024-02-14T10:13:59;2.88;;;1.00;;
44766;SDS011;30487;48.716;9.272;2024-02-14T10:16:28;1.63;;;0.77;;
44766;SDS011;30487;48.716;9.272;2024-02-14T10:18:54;2.45;;;0.90;;
44766;SDS011;30487;48.716;9.272;2024-02-14T10:21:21;2.55;;;0.93;;
44766;SDS011;30487;48.716;9.272;2024-02-14T10:23:47;2.97;;;0.98;;
44766;SDS011;30487;48.716;9.272;2024-02-14T10:26:17;2.20;;;0.80;;
44766;SDS011;30487;48.716;9.272;2024-02-14T10:28:43;4.13;;;1.00;;
44766;SDS011;30487;48.716;9.272;2024-02-14T10:31:12;3.35;;;0.90;;
44766;SDS011;30487;48.716;9.272;2024-02-14T10:33:38;1.77;;;0.88;;
44766;SDS011;30487;48.716;9.272;2024-02-14T10:36:05;2.20;;;0.70;;
44766;SDS011;30487;48.716;9.272;2024-02-14T10:38:33;2.30;;;0.90;;
44766;SDS011;30487;48.716;9.272;2024-02-14T10:41:00;2.67;;;1.15;;
44766;SDS011;30487;48.716;9.272;2024-02-14T10:43:26;1.90;;;0.80;;
44766;SDS011;30487;48.716;9.272;2024-02-14T10:45:53;3.70;;;1.13;;
44766;SDS011;30487;48.716;9.272;2024-02-14T10:48:21;2.25;;;0.90;;
44766;SDS011;30487;48.716;9.272;2024-02-14T10:50:54;2.72;;;0.63;;
44766;SDS011;30487;48.716;9.272;2024-02-14T10:53:22;3.05;;;0.80;;
44766;SDS011;30487;48.716;9.272;2024-02-14T10:55:50;2.03;;;1.00;;
44766;SDS011;30487;48.716;9.272;2024-02-14T10:58:18;3.70;;;1.10;;
44766;SDS011;30487;48.716;9.272;2024-02-14T11:00:44;2.22;;;0.90;;
44766;SDS011;30487;48.716;9.272;2024-02-14T11:03:11;1.58;;;0.80;;
44766;SDS011;30487;48.716;9.272;2024-02-14T11:05:42;3.55;;;1.00;;
44766;SDS011;30487;48.716;9.272;2024-02-14T11:08:13;2.15;;;1.00;;
44766;SDS011;30487;48.716;9.272;2024-02-14T11:10:40;3.38;;;1.00;;
44766;SDS011;30487;48.716;9.272;2024-02-14T11:13:09;2.58;;;0.77;;
44766;SDS011;30487;48.716;9.272;2024-02-14T11:15:41;2.38;;;0.88;;
44766;SDS011;30487;48.716;9.272;2024-02-14T11:18:10;2.45;;;0.88;;
44766;SDS011;30487;48.716;9.272;2024-02-14T11:20:35;1.60;;;0.75;;
44766;SDS011;30487;48.716;9.272;2024-02-14T11:23:05;1.80;;;0.80;;
44766;SDS011;30487;48.716;9.272;2024-02-14T11:25:36;4.85;;;0.80;;
44766;SDS011;30487;48.716;9.272;2024-02-14T11:28:14;1.80;;;0.80;;
44766;SDS011;30487;48.716;9.272;2024-02-14T11:30:42;3.72;;;0.90;;
44766;SDS011;30487;48.716;9.272;2024-02-14T11:33:18;1.10;;;0.60;;
44766;SDS011;30487;48.716;9.272;2024-02-14T11:35:50;2.17;;;0.70;;
44766;SDS011;30487;48.716;9.272;2024-02-14T11:38:18;1.98;;;0.70;;
44766;SDS011;30487;48.716;9.272;2024-02-14T11:40:44;1.58;;;0.70;;
44766;SDS011;30487;48.716;9.272;2024-02-14T11:43:14;2.58;;;0.82;;
44766;SDS011;30487;48.716;9.272;2024-02-14T11:45:44;2.47;;;0.73;;
44766;SDS011;30487;48.716;9.272;2024-02-14T11:48:11;1.95;;;0.60;;
44766;SDS011;30487;48.716;9.272;2024-02-14T11:50:38;1.88;;;0.90;;
44766;SDS011;30487;48.716;9.272;2024-02-14T11:53:06;2.42;;;0.75;;
44766;SDS011;30487;48.716;9.272;2024-02-14T11:55:36;3.95;;;0.85;;
44766;SDS011;30487;48.716;9.272;2024-02-14T11:58:09;1.77;;;0.82;;
44766;SDS011;30487;48.716;9.272;2024-02-14T12:00:43;2.28;;;0.93;;
44766;SDS011;30487;48.716;9.272;2024-02-14T12:03:16;1.98;;;0.80;;
44766;SDS011;30487;48.716;9.272;2024-02-14T12:05:50;4.38;;;0.93;;
44766;SDS011;30487;48.716;9.272;2024-02-14T12:08:17;1.55;;;0.60;;
44766;SDS011;30487;48.716;9.272;2024-02-14T12:10:43;2.90;;;0.80;;
44766;SDS011;30487;48.716;9.272;2024-02-14T12:13:13;1.33;;;0.60;;
44766;SDS011;30487;48.716;9.272;2024-02-14T12:15:40;1.80;;;0.60;;
44766;SDS011;30487;48.716;9.272;2024-02-14T12:18:07;1.10;;;0.60;;
44766;SDS011;30487;48.716;9.272;2024-02-14T12:20:35;1.23;;;0.60;;
44766;SDS011;30487;48.716;9.272;2024-02-14T12:23:02;0.75;;;0.52;;
44766;SDS011;30487;48.716;9.272;2024-02-14T12:25:27;0.93;;;0.50;;
44766;SDS011;30487;48.716;9.272;2024-02-14T12:27:55;0.85;;;0.40;;
44766;SDS011;30487;48.716;9.272;2024-02-14T12:30:22;1.20;;;0.40;;
44766;SDS011;30487;48.716;9.272;2024-02-14T12:33:00;2.15;;;0.60;;
44766;SDS011;30487;48.716;9.272;2024-02-14T12:35:33;2.30;;;0.52;;
44766;SDS011;30487;48.716;9.272;2024-02-14T12:38:00;1.00;;;0.40;;
44766;SDS011;30487;48.716;9.272;2024-02-14T12:40:26;1.25;;;0.50;;
44766;SDS011;30487;48.716;9.272;2024-02-14T12:42:53;0.70;;;0.47;;
44766;SDS011;30487;48.716;9.272;2024-02-14T12:45:19;0.43;;;0.40;;
44766;SDS011;30487;48.716;9.272;2024-02-14T12:47:45;0.82;;;0.47;;
44766;SDS011;30487;48.716;9.272;2024-02-14T12:50:10;1.02;;;0.45;;
44766;SDS011;30487;48.716;9.272;2024-02-14T12:52:36;1.15;;;0.50;;
44766;SDS011;30487;48.716;9.272;2024-02-14T12:55:02;0.68;;;0.40;;
44766;SDS011;30487;48.716;9.272;2024-02-14T12:57:28;1.45;;;0.50;;
44766;SDS011;30487;48.716;9.272;2024-02-14T12:59:54;1.67;;;0.40;;
44766;SDS011;30487;48.716;9.272;2024-02-14T13:02:19;2.25;;;0.70;;
44766;SDS011;30487;48.716;9.272;2024-02-14T13:04:45;1.02;;;0.50;;
44766;SDS011;30487;48.716;9.272;2024-02-14T13:07:11;1.30;;;0.40;;
44766;SDS011;30487;48.716;9.272;2024-02-14T13:09:37;1.05;;;0.50;;
44766;SDS011;30487;48.716;9.272;2024-02-14T13:12:03;0.40;;;0.30;;
44766;SDS011;30487;48.716;9.272;2024-02-14T13:14:31;0.80;;;0.40;;
44766;SDS011;30487;48.716;9.272;2024-02-14T13:16:58;1.08;;;0.50;;
44766;SDS011;30487;48.716;9.272;2024-02-14T13:19:23;1.05;;;0.50;;
44766;SDS011;30487;48.716;9.272;2024-02-14T13:21:49;1.80;;;0.50;;
44766;SDS011;30487;48.716;9.272;2024-02-14T13:24:14;0.52;;;0.30;;
44766;SDS011;30487;48.716;9.272;2024-02-14T13:26:40;1.17;;;0.55;;
44766;SDS011;30487;48.716;9.272;2024-02-14T13:29:06;1.10;;;0.40;;
44766;SDS011;30487;48.716;9.272;2024-02-14T13:31:32;1.13;;;0.35;;
44766;SDS011;30487;48.716;9.272;2024-02-14T13:33:57;0.43;;;0.40;;
44766;SDS011;30487;48.716;9.272;2024-02-14T13:36:23;1.13;;;0.40;;
44766;SDS011;30487;48.716;9.272;2024-02-14T13:38:49;0.88;;;0.40;;
44766;SDS011;30487;48.716;9.272;2024-02-14T13:41:14;0.68;;;0.40;;
44766;SDS011;30487;48.716;9.272;2024-02-14T13:43:40;0.40;;;0.30;;
44766;SDS011;30487;48.716;9.272;2024-02-14T13:46:06;0.50;;;0.40;;
44766;SDS011;30487;48.716;9.272;2024-02-14T13:48:34;0.60;;;0.38;;
44766;SDS011;30487;48.716;9.272;2024-02-14T13:51:00;1.40;;;0.40;;
44766;SDS011;30487;48.716;9.272;2024-02-14T13:53:27;1.25;;;0.32;;
44766;SDS011;30487;48.716;9.272;2024-02-14T13:55:52;0.90;;;0.30;;
44766;SDS011;30487;48.716;9.272;2024-02-14T13:58:18;0.60;;;0.30;;
44766;SDS011;30487;48.716;9.272;2024-02-14T14:00:44;2.28;;;0.30;;
44766;SDS011;30487;48.716;9.272;2024-02-14T14:03:10;0.38;;;0.25;;
44766;SDS011;30487;48.716;9.272;2024-02-14T14:05:36;2.33;;;0.40;;
44766;SDS011;30487;48.716;9.272;2024-02-14T14:08:02;0.63;;;0.40;;
44766;SDS011;30487;48.716;9.272;2024-02-14T14:10:28;0.52;;;0.30;;
44766;SDS011;30487;48.716;9.272;2024-02-14T14:12:54;1.48;;;0.30;;
44766;SDS011;30487;48.716;9.272;2024-02-14T14:15:20;0.40;;;0.40;;
44766;SDS011;30487;48.716;9.272;2024-02-14T14:17:47;0.63;;;0.30;;
44766;SDS011;30487;48.716;9.272;2024-02-14T14:20:13;1.88;;;0.40;;
44766;SDS011;30487;48.716;9.272;2024-02-14T14:22:39;1.17;;;0.40;;
44766;SDS011;30487;48.716;9.272;2024-02-14T14:25:04;0.88;;;0.40;;
44766;SDS011;30487;48.716;9.272;2024-02-14T14:27:33;0.60;;;0.38;;
44766;SDS011;30487;48.716;9.272;2024-02-14T14:29:58;0.45;;;0.30;;
44766;SDS011;30487;48.716;9.272;2024-02-14T14:32:24;0.63;;;0.40;;
44766;SDS011;30487;48.716;9.272;2024-02-14T14:34:50;0.90;;;0.30;;
44766;SDS011;30487;48.716;9.272;2024-02-14T14:37:15;1.15;;;0.30;;
44766;SDS011;30487;48.716;9.272;2024-02-14T14:39:41;1.85;;;0.50;;
44766;SDS011;30487;48.716;9.272;2024-02-14T14:42:08;1.08;;;0.50;;